createdAt,value
2022-09-09T00:01:22.000Z,98119
2022-09-09T00:03:28.000Z,98122
2022-09-09T00:04:55.000Z,98122
2022-09-09T00:07:01.000Z,98124
2022-09-09T00:08:27.000Z,98123
2022-09-09T00:10:34.000Z,98124
2022-09-09T00:13:25.000Z,98118
2022-09-09T00:14:51.000Z,98118
2022-09-09T00:16:58.000Z,98119
2022-09-09T00:18:24.000Z,98119
2022-09-09T00:20:30.000Z,98122
2022-09-09T00:21:57.000Z,98121
2022-09-09T00:24:03.000Z,98120
2022-09-09T00:25:29.000Z,98120
2022-09-09T00:27:35.000Z,98117
2022-09-09T00:29:02.000Z,98110
2022-09-09T00:31:08.000Z,98107
2022-09-09T00:32:35.000Z,98105
2022-09-09T00:34:41.000Z,98099
2022-09-09T00:36:07.000Z,98103
2022-09-09T00:38:13.000Z,98099
2022-09-09T00:39:40.000Z,98096
2022-09-09T00:41:46.000Z,98101
2022-09-09T00:43:12.000Z,98108
2022-09-09T00:45:19.000Z,98106
2022-09-09T00:46:45.000Z,98109
2022-09-09T00:48:51.000Z,98109
2022-09-09T00:51:42.000Z,98099
2022-09-09T00:53:09.000Z,98095
2022-09-09T00:55:15.000Z,98098
2022-09-09T00:56:42.000Z,98099
2022-09-09T00:58:48.000Z,98097
2022-09-09T01:00:14.000Z,98096
2022-09-09T01:02:20.000Z,98096
2022-09-09T01:03:47.000Z,98096
2022-09-09T01:05:53.000Z,98100
2022-09-09T01:07:19.000Z,98095
2022-09-09T01:09:26.000Z,98095
2022-09-09T01:10:52.000Z,98096
2022-09-09T01:12:58.000Z,98093
2022-09-09T01:14:25.000Z,98096
2022-09-09T01:16:31.000Z,98093
2022-09-09T01:17:57.000Z,98098
2022-09-09T01:20:04.000Z,98096
2022-09-09T01:21:30.000Z,98098
2022-09-09T01:23:36.000Z,98095
2022-09-09T01:25:03.000Z,98101
2022-09-09T01:27:09.000Z,98099
2022-09-09T01:30:00.000Z,98100
2022-09-09T01:31:27.000Z,98096
2022-09-09T01:33:33.000Z,98096
2022-09-09T01:34:59.000Z,98095
2022-09-09T01:37:05.000Z,98095
2022-09-09T01:38:32.000Z,98095
2022-09-09T01:40:38.000Z,98093
2022-09-09T01:42:04.000Z,98096
2022-09-09T01:44:11.000Z,98096
2022-09-09T01:45:37.000Z,98096
2022-09-09T01:47:43.000Z,98102
2022-09-09T01:49:10.000Z,98101
2022-09-09T01:51:16.000Z,98102
2022-09-09T01:52:42.000Z,98101
2022-09-09T01:54:49.000Z,98098
2022-09-09T01:56:15.000Z,98097
2022-09-09T01:58:21.000Z,98104
2022-09-09T01:59:48.000Z,98105
2022-09-09T02:01:54.000Z,98111
2022-09-09T02:03:21.000Z,98105
2022-09-09T02:05:27.000Z,98101
2022-09-09T02:08:18.000Z,98105
2022-09-09T02:09:44.000Z,98101
2022-09-09T02:11:51.000Z,98102
2022-09-09T02:13:17.000Z,98099
2022-09-09T02:15:23.000Z,98107
2022-09-09T02:16:50.000Z,98105
2022-09-09T02:18:56.000Z,98112
2022-09-09T02:20:22.000Z,98111
2022-09-09T02:22:28.000Z,98114
2022-09-09T02:23:55.000Z,98107
2022-09-09T02:26:01.000Z,98107
2022-09-09T02:27:28.000Z,98110
2022-09-09T02:29:34.000Z,98109
2022-09-09T02:31:00.000Z,98113
2022-09-09T02:33:06.000Z,98116
2022-09-09T02:34:33.000Z,98114
2022-09-09T02:36:39.000Z,98115
2022-09-09T02:38:06.000Z,98112
2022-09-09T02:40:12.000Z,98114
2022-09-09T02:41:38.000Z,98112
2022-09-09T02:43:44.000Z,98113
2022-09-09T02:46:36.000Z,98109
2022-09-09T02:48:02.000Z,98103
2022-09-09T02:50:08.000Z,98102
2022-09-09T02:51:35.000Z,98095
2022-09-09T02:53:41.000Z,98101
2022-09-09T02:55:07.000Z,98099
2022-09-09T02:57:13.000Z,98100
2022-09-09T02:58:40.000Z,98101
2022-09-09T03:00:46.000Z,98105
2022-09-09T03:02:13.000Z,98109
2022-09-09T03:04:19.000Z,98110
2022-09-09T03:05:45.000Z,98111
2022-09-09T03:07:51.000Z,98110
2022-09-09T03:09:18.000Z,98110
2022-09-09T03:11:24.000Z,98108
2022-09-09T03:12:50.000Z,98111
2022-09-09T03:14:56.000Z,98113
2022-09-09T03:16:23.000Z,98118
2022-09-09T03:18:29.000Z,98116
2022-09-09T03:19:56.000Z,98116
2022-09-09T03:22:02.000Z,98114
2022-09-09T03:24:53.000Z,98110
2022-09-09T03:26:20.000Z,98105
2022-09-09T03:28:26.000Z,98102
2022-09-09T03:29:52.000Z,98104
2022-09-09T03:31:58.000Z,98099
2022-09-09T03:33:25.000Z,98093
2022-09-09T03:35:31.000Z,98090
2022-09-09T03:36:58.000Z,98088
2022-09-09T03:39:04.000Z,98094
2022-09-09T03:40:30.000Z,98100
2022-09-09T03:42:36.000Z,98112
2022-09-09T03:44:03.000Z,98110
2022-09-09T03:46:09.000Z,98111
2022-09-09T03:47:36.000Z,98108
2022-09-09T03:49:42.000Z,98105
2022-09-09T03:51:08.000Z,98103
2022-09-09T03:53:14.000Z,98099
2022-09-09T03:54:41.000Z,98101
2022-09-09T03:56:47.000Z,98096
2022-09-09T03:58:13.000Z,98095
2022-09-09T04:00:19.000Z,98086
2022-09-09T04:03:11.000Z,98082
2022-09-09T04:04:37.000Z,98083
2022-09-09T04:06:43.000Z,98073
2022-09-09T04:08:10.000Z,98078
2022-09-09T04:10:16.000Z,98075
2022-09-09T04:11:43.000Z,98069
2022-09-09T04:13:49.000Z,98075
2022-09-09T04:15:15.000Z,98073
2022-09-09T04:17:21.000Z,98077
2022-09-09T04:18:48.000Z,98078
2022-09-09T04:20:54.000Z,98073
2022-09-09T04:22:20.000Z,98072
2022-09-09T04:24:27.000Z,98075
2022-09-09T04:25:53.000Z,98078
2022-09-09T04:27:59.000Z,98078
2022-09-09T04:29:26.000Z,98075
2022-09-09T04:31:32.000Z,98077
2022-09-09T04:32:58.000Z,98086
2022-09-09T04:35:04.000Z,98087
2022-09-09T04:36:31.000Z,98093
2022-09-09T04:38:37.000Z,98094
2022-09-09T04:41:28.000Z,98096
2022-09-09T04:42:55.000Z,98094
2022-09-09T04:45:01.000Z,98093
2022-09-09T04:46:27.000Z,98084
2022-09-09T04:48:34.000Z,98083
2022-09-09T04:50:00.000Z,98082
2022-09-09T04:52:06.000Z,98089
2022-09-09T04:53:33.000Z,98091
2022-09-09T04:55:39.000Z,98088
2022-09-09T04:57:05.000Z,98088
2022-09-09T04:59:11.000Z,98092
2022-09-09T05:00:38.000Z,98095
2022-09-09T05:02:44.000Z,98095
2022-09-09T05:04:11.000Z,98095
2022-09-09T05:06:17.000Z,98091
2022-09-09T05:07:43.000Z,98095
2022-09-09T05:09:49.000Z,98097
2022-09-09T05:11:16.000Z,98099
2022-09-09T05:13:22.000Z,98100
2022-09-09T05:14:48.000Z,98099
2022-09-09T05:16:55.000Z,98093
2022-09-09T05:19:46.000Z,98101
2022-09-09T05:21:12.000Z,98100
2022-09-09T05:23:18.000Z,98104
2022-09-09T05:24:45.000Z,98104
2022-09-09T05:26:51.000Z,98102
2022-09-09T05:28:17.000Z,98101
2022-09-09T05:30:23.000Z,98103
2022-09-09T05:31:50.000Z,98098
2022-09-09T05:33:56.000Z,98107
2022-09-09T05:35:23.000Z,98104
2022-09-09T05:37:29.000Z,98100
2022-09-09T05:38:55.000Z,98106
2022-09-09T05:41:01.000Z,98106
2022-09-09T05:42:28.000Z,98110
2022-09-09T05:44:34.000Z,98108
2022-09-09T05:46:01.000Z,98101
2022-09-09T05:48:07.000Z,98103
2022-09-09T05:49:33.000Z,98101
2022-09-09T05:51:39.000Z,98108
2022-09-09T05:53:06.000Z,98108
2022-09-09T05:55:12.000Z,98114
2022-09-09T05:58:03.000Z,98112
2022-09-09T05:59:30.000Z,98114
2022-09-09T06:01:36.000Z,98113
2022-09-09T06:03:02.000Z,98110
2022-09-09T06:05:09.000Z,98109
2022-09-09T06:06:35.000Z,98113
2022-09-09T06:08:41.000Z,98111
2022-09-09T06:10:08.000Z,98113
2022-09-09T06:12:14.000Z,98111
2022-09-09T06:13:40.000Z,98116
2022-09-09T06:15:47.000Z,98105
2022-09-09T06:17:13.000Z,98113
2022-09-09T06:19:19.000Z,98108
2022-09-09T06:20:46.000Z,98104
2022-09-09T06:22:52.000Z,98107
2022-09-09T06:24:18.000Z,98099
2022-09-09T06:26:24.000Z,98101
2022-09-09T06:27:51.000Z,98106
2022-09-09T06:29:57.000Z,98108
2022-09-09T06:31:24.000Z,98112
2022-09-09T06:33:35.000Z,98119
2022-09-09T06:36:26.000Z,98113
2022-09-09T06:37:53.000Z,98116
2022-09-09T06:39:59.000Z,98111
2022-09-09T06:41:25.000Z,98113
2022-09-09T06:43:32.000Z,98118
2022-09-09T06:44:58.000Z,98122
2022-09-09T06:47:04.000Z,98123
2022-09-09T06:48:31.000Z,98123
2022-09-09T06:50:37.000Z,98123
2022-09-09T06:52:03.000Z,98128
2022-09-09T06:54:09.000Z,98133
2022-09-09T06:55:36.000Z,98134
2022-09-09T06:57:42.000Z,98139
2022-09-09T06:59:08.000Z,98148
2022-09-09T07:01:15.000Z,98141
2022-09-09T07:02:41.000Z,98148
2022-09-09T07:04:47.000Z,98146
2022-09-09T07:06:14.000Z,98149
2022-09-09T07:08:20.000Z,98155
2022-09-09T07:09:46.000Z,98157
2022-09-09T07:11:52.000Z,98165
2022-09-09T07:14:44.000Z,98161
2022-09-09T07:16:10.000Z,98167
2022-09-09T07:18:16.000Z,98171
2022-09-09T07:19:43.000Z,98164
2022-09-09T07:21:49.000Z,98164
2022-09-09T07:23:16.000Z,98165
2022-09-09T07:25:22.000Z,98161
2022-09-09T07:26:48.000Z,98168
2022-09-09T07:28:54.000Z,98172
2022-09-09T07:30:21.000Z,98176
2022-09-09T07:32:33.000Z,98173
2022-09-09T07:34:00.000Z,98178
2022-09-09T07:36:06.000Z,98178
2022-09-09T07:37:32.000Z,98174
2022-09-09T07:39:38.000Z,98180
2022-09-09T07:41:05.000Z,98180
2022-09-09T07:43:11.000Z,98182
2022-09-09T07:44:43.000Z,98179
2022-09-09T07:46:49.000Z,98179
2022-09-09T07:48:16.000Z,98175
2022-09-09T07:50:22.000Z,98175
2022-09-09T07:53:13.000Z,98176
2022-09-09T07:54:39.000Z,98170
2022-09-09T07:56:45.000Z,98171
2022-09-09T07:58:12.000Z,98170
2022-09-09T08:00:18.000Z,98171
2022-09-09T08:01:45.000Z,98173
2022-09-09T08:03:51.000Z,98172
2022-09-09T08:05:22.000Z,98178
2022-09-09T08:07:28.000Z,98174
2022-09-09T08:08:55.000Z,98183
2022-09-09T08:11:01.000Z,98179
2022-09-09T08:12:28.000Z,98176
2022-09-09T08:14:34.000Z,98176
2022-09-09T08:16:00.000Z,98180
2022-09-09T08:18:06.000Z,98184
2022-09-09T08:19:33.000Z,98178
2022-09-09T08:21:39.000Z,98188
2022-09-09T08:23:05.000Z,98184
2022-09-09T08:25:12.000Z,98184
2022-09-09T08:26:38.000Z,98181
2022-09-09T08:28:44.000Z,98183
2022-09-09T08:31:36.000Z,98198
2022-09-09T08:33:02.000Z,98195
2022-09-09T08:35:08.000Z,98197
2022-09-09T08:36:35.000Z,98191
2022-09-09T08:38:41.000Z,98195
2022-09-09T08:40:07.000Z,98192
2022-09-09T08:42:13.000Z,98193
2022-09-09T08:43:40.000Z,98194
2022-09-09T08:45:46.000Z,98196
2022-09-09T08:47:12.000Z,98194
2022-09-09T08:49:19.000Z,98199
2022-09-09T08:50:45.000Z,98193
2022-09-09T08:52:51.000Z,98198
2022-09-09T08:54:18.000Z,98195
2022-09-09T08:56:47.000Z,98193
2022-09-09T08:58:14.000Z,98199
2022-09-09T09:00:20.000Z,98200
2022-09-09T09:01:46.000Z,98198
2022-09-09T09:03:52.000Z,98196
2022-09-09T09:05:19.000Z,98198
2022-09-09T09:07:25.000Z,98198
2022-09-09T09:10:23.000Z,98195
2022-09-09T09:12:07.000Z,98199
2022-09-09T09:14:13.000Z,98195
2022-09-09T09:15:39.000Z,98205
2022-09-09T09:17:46.000Z,98198
2022-09-09T09:19:12.000Z,98196
2022-09-09T09:21:18.000Z,98199
2022-09-09T09:22:45.000Z,98201
2022-09-09T09:24:51.000Z,98202
2022-09-09T09:26:17.000Z,98208
2022-09-09T09:28:23.000Z,98205
2022-09-09T09:29:50.000Z,98207
2022-09-09T09:32:16.000Z,98205
2022-09-09T09:33:43.000Z,98202
2022-09-09T09:35:49.000Z,98209
2022-09-09T09:37:15.000Z,98206
2022-09-09T09:41:18.000Z,98200
2022-09-09T09:43:24.000Z,98196
2022-09-09T09:44:51.000Z,98202
2022-09-09T09:46:57.000Z,98196
2022-09-09T09:49:48.000Z,98197
2022-09-09T09:51:15.000Z,98196
2022-09-09T09:53:21.000Z,98191
2022-09-09T09:54:47.000Z,98191
2022-09-09T09:56:54.000Z,98205
2022-09-09T09:58:20.000Z,98190
2022-09-09T10:00:26.000Z,98197
2022-09-09T10:01:53.000Z,98198
2022-09-09T10:03:59.000Z,98196
2022-09-09T10:05:26.000Z,98189
2022-09-09T10:07:33.000Z,98199
2022-09-09T10:09:00.000Z,98196
2022-09-09T10:11:06.000Z,98196
2022-09-09T10:12:32.000Z,98180
2022-09-09T10:14:38.000Z,98200
2022-09-09T10:16:05.000Z,98206
2022-09-09T10:18:11.000Z,98198
2022-09-09T10:19:38.000Z,98193
2022-09-09T10:21:44.000Z,98196
2022-09-09T10:23:10.000Z,98190
2022-09-09T10:25:16.000Z,98191
2022-09-09T10:28:08.000Z,98191
2022-09-09T10:29:34.000Z,98182
2022-09-09T10:31:40.000Z,98177
2022-09-09T10:33:07.000Z,98167
2022-09-09T10:35:13.000Z,98183
2022-09-09T10:36:40.000Z,98178
2022-09-09T10:38:46.000Z,98186
2022-09-09T10:40:12.000Z,98179
2022-09-09T10:42:18.000Z,98183
2022-09-09T10:43:45.000Z,98179
2022-09-09T10:45:51.000Z,98181
2022-09-09T10:47:18.000Z,98186
2022-09-09T10:49:24.000Z,98179
2022-09-09T10:50:50.000Z,98172
2022-09-09T10:53:10.000Z,98175
2022-09-09T10:54:37.000Z,98178
2022-09-09T10:56:43.000Z,98189
2022-09-09T10:58:10.000Z,98178
2022-09-09T11:00:16.000Z,98170
2022-09-09T11:01:42.000Z,98165
2022-09-09T11:03:48.000Z,98155
2022-09-09T11:06:40.000Z,98170
2022-09-09T11:08:06.000Z,98173
2022-09-09T11:10:12.000Z,98190
2022-09-09T11:11:39.000Z,98181
2022-09-09T11:13:45.000Z,98190
2022-09-09T11:15:12.000Z,98194
2022-09-09T11:17:18.000Z,98188
2022-09-09T11:18:44.000Z,98185
2022-09-09T11:20:50.000Z,98178
2022-09-09T11:22:17.000Z,98184
2022-09-09T11:24:23.000Z,98180
2022-09-09T11:25:50.000Z,98183
2022-09-09T11:27:56.000Z,98166
2022-09-09T11:29:22.000Z,98164
2022-09-09T11:31:29.000Z,98167
2022-09-09T11:32:55.000Z,98169
2022-09-09T11:35:02.000Z,98167
2022-09-09T11:36:28.000Z,98170
2022-09-09T11:38:34.000Z,98172
2022-09-09T11:40:01.000Z,98168
2022-09-09T11:42:07.000Z,98174
2022-09-09T11:44:59.000Z,98180
2022-09-09T11:46:25.000Z,98169
2022-09-09T11:48:31.000Z,98170
2022-09-09T11:49:58.000Z,98168
2022-09-09T11:52:04.000Z,98166
2022-09-09T11:53:31.000Z,98173
2022-09-09T11:55:37.000Z,98170
2022-09-09T11:57:03.000Z,98170
2022-09-09T11:59:09.000Z,98166
2022-09-09T12:00:36.000Z,98165
2022-09-09T12:02:42.000Z,98167
2022-09-09T12:04:09.000Z,98166
2022-09-09T12:06:15.000Z,98166
2022-09-09T12:07:41.000Z,98167
2022-09-09T12:09:47.000Z,98168
2022-09-09T12:11:14.000Z,98177
2022-09-09T12:13:20.000Z,98188
2022-09-09T12:14:46.000Z,98187
2022-09-09T12:16:52.000Z,98188
2022-09-09T12:18:19.000Z,98187
2022-09-09T12:20:25.000Z,98184
2022-09-09T12:23:16.000Z,98179
2022-09-09T12:24:43.000Z,98177
2022-09-09T12:26:49.000Z,98179
2022-09-09T12:28:16.000Z,98177
2022-09-09T12:30:22.000Z,98172
2022-09-09T12:31:48.000Z,98175
2022-09-09T12:33:54.000Z,98175
2022-09-09T12:35:21.000Z,98176
2022-09-09T12:37:27.000Z,98167
2022-09-09T12:38:53.000Z,98168
2022-09-09T12:41:00.000Z,98172
2022-09-09T12:42:26.000Z,98160
2022-09-09T12:44:32.000Z,98165
2022-09-09T12:45:59.000Z,98168
2022-09-09T12:48:05.000Z,98166
2022-09-09T12:49:31.000Z,98168
2022-09-09T12:51:37.000Z,98162
2022-09-09T12:53:04.000Z,98162
2022-09-09T12:55:10.000Z,98156
2022-09-09T12:56:36.000Z,98157
2022-09-09T12:58:43.000Z,98158
2022-09-09T13:01:34.000Z,98156
2022-09-09T13:03:01.000Z,98150
2022-09-09T13:05:07.000Z,98149
2022-09-09T13:06:33.000Z,98149
2022-09-09T13:08:40.000Z,98143
2022-09-09T13:10:06.000Z,98145
2022-09-09T13:12:14.000Z,98143
2022-09-09T13:13:40.000Z,98142
2022-09-09T13:15:46.000Z,98148
2022-09-09T13:17:13.000Z,98149
2022-09-09T13:19:19.000Z,98154
2022-09-09T13:20:45.000Z,98156
2022-09-09T13:22:52.000Z,98140
2022-09-09T13:24:18.000Z,98148
2022-09-09T13:26:24.000Z,98151
2022-09-09T13:27:51.000Z,98146
2022-09-09T13:29:57.000Z,98151
2022-09-09T13:31:24.000Z,98147
2022-09-09T13:33:30.000Z,98146
2022-09-09T13:34:57.000Z,98145
2022-09-09T13:37:03.000Z,98151
2022-09-09T13:39:54.000Z,98149
2022-09-09T13:41:20.000Z,98148
2022-09-09T13:43:27.000Z,98139
2022-09-09T13:44:53.000Z,98147
2022-09-09T13:46:59.000Z,98130
2022-09-09T13:48:26.000Z,98142
2022-09-09T13:50:32.000Z,98134
2022-09-09T13:51:58.000Z,98126
2022-09-09T13:54:04.000Z,98138
2022-09-09T13:55:31.000Z,98135
2022-09-09T13:57:37.000Z,98140
2022-09-09T13:59:04.000Z,98142
2022-09-09T14:01:10.000Z,98139
2022-09-09T14:02:36.000Z,98147
2022-09-09T14:04:43.000Z,98144
2022-09-09T14:06:09.000Z,98146
2022-09-09T14:08:16.000Z,98143
2022-09-09T14:09:43.000Z,98145
2022-09-09T14:11:49.000Z,98136
2022-09-09T14:13:16.000Z,98136
2022-09-09T14:15:22.000Z,98128
2022-09-09T14:18:13.000Z,98125
2022-09-09T14:19:40.000Z,98113
2022-09-09T14:21:46.000Z,98127
2022-09-09T14:23:12.000Z,98124
2022-09-09T14:25:18.000Z,98130
2022-09-09T14:26:45.000Z,98127
2022-09-09T14:28:51.000Z,98135
2022-09-09T14:30:22.000Z,98148
2022-09-09T14:32:28.000Z,98138
2022-09-09T14:33:54.000Z,98138
2022-09-09T14:36:01.000Z,98135
2022-09-09T14:37:27.000Z,98136
2022-09-09T14:39:33.000Z,98137
2022-09-09T14:41:00.000Z,98136
2022-09-09T14:43:06.000Z,98129
2022-09-09T14:44:32.000Z,98126
2022-09-09T14:46:39.000Z,98139
2022-09-09T14:48:05.000Z,98128
2022-09-09T14:50:11.000Z,98122
2022-09-09T14:51:38.000Z,98124
2022-09-09T14:53:44.000Z,98121
2022-09-09T14:56:35.000Z,98122
2022-09-09T14:58:02.000Z,98116
2022-09-09T15:00:08.000Z,98119
2022-09-09T15:01:34.000Z,98105
2022-09-09T15:03:40.000Z,98113
2022-09-09T15:05:07.000Z,98103
2022-09-09T15:07:13.000Z,98111
2022-09-09T15:08:40.000Z,98108
2022-09-09T15:10:48.000Z,98107
2022-09-09T15:12:15.000Z,98106
2022-09-09T15:14:21.000Z,98104
2022-09-09T15:15:51.000Z,98102
2022-09-09T15:17:58.000Z,98108
2022-09-09T15:19:24.000Z,98110
2022-09-09T15:21:30.000Z,98097
2022-09-09T15:22:57.000Z,98094
2022-09-09T15:25:03.000Z,98100
2022-09-09T15:26:30.000Z,98100
2022-09-09T15:28:36.000Z,98097
2022-09-09T15:30:02.000Z,98100
2022-09-09T15:32:08.000Z,98089
2022-09-09T15:35:00.000Z,98090
2022-09-09T15:36:27.000Z,98098
2022-09-09T15:38:33.000Z,98089
2022-09-09T15:39:59.000Z,98091
2022-09-09T15:42:05.000Z,98094
2022-09-09T15:43:32.000Z,98096
2022-09-09T15:45:38.000Z,98095
2022-09-09T15:47:04.000Z,98101
2022-09-09T15:49:11.000Z,98086
2022-09-09T15:50:37.000Z,98096
2022-09-09T15:52:44.000Z,98094
2022-09-09T15:54:10.000Z,98094
2022-09-09T15:56:16.000Z,98098
2022-09-09T15:57:43.000Z,98096
2022-09-09T15:59:49.000Z,98097
2022-09-09T16:01:15.000Z,98094
2022-09-09T16:03:21.000Z,98101
2022-09-09T16:04:48.000Z,98106
2022-09-09T16:06:54.000Z,98106
2022-09-09T16:08:20.000Z,98112
2022-09-09T16:10:27.000Z,98119
2022-09-09T16:13:18.000Z,98121
2022-09-09T16:14:44.000Z,98118
2022-09-09T16:16:50.000Z,98122
2022-09-09T16:18:17.000Z,98118
2022-09-09T16:20:23.000Z,98116
2022-09-09T16:21:50.000Z,98120
2022-09-09T16:23:56.000Z,98121
2022-09-09T16:25:22.000Z,98125
2022-09-09T16:27:28.000Z,98124
2022-09-09T16:28:55.000Z,98123
2022-09-09T16:31:01.000Z,98124
2022-09-09T16:32:28.000Z,98125
2022-09-09T16:34:34.000Z,98124
2022-09-09T16:36:00.000Z,98128
2022-09-09T16:38:06.000Z,98127
2022-09-09T16:39:33.000Z,98128
2022-09-09T16:41:39.000Z,98126
2022-09-09T16:43:06.000Z,98127
2022-09-09T16:45:12.000Z,98128
2022-09-09T16:46:38.000Z,98132
2022-09-09T16:48:45.000Z,98134
2022-09-09T16:51:36.000Z,98134
2022-09-09T16:53:02.000Z,98137
2022-09-09T16:55:08.000Z,98140
2022-09-09T16:56:35.000Z,98136
2022-09-09T16:58:41.000Z,98140
2022-09-09T17:00:08.000Z,98139
2022-09-09T17:02:14.000Z,98147
2022-09-09T17:03:40.000Z,98148
2022-09-09T17:05:47.000Z,98150
2022-09-09T17:07:13.000Z,98153
2022-09-09T17:09:19.000Z,98160
2022-09-09T17:10:46.000Z,98156
2022-09-09T17:12:52.000Z,98161
2022-09-09T17:14:18.000Z,98158
2022-09-09T17:16:24.000Z,98164
2022-09-09T17:17:51.000Z,98157
2022-09-09T17:19:57.000Z,98164
2022-09-09T17:21:24.000Z,98165
2022-09-09T17:23:30.000Z,98170
2022-09-09T17:24:57.000Z,98168
2022-09-09T17:27:03.000Z,98169
2022-09-09T17:29:54.000Z,98174
2022-09-09T17:31:20.000Z,98172
2022-09-09T17:33:27.000Z,98175
2022-09-09T17:34:53.000Z,98178
2022-09-09T17:36:59.000Z,98179
2022-09-09T17:38:26.000Z,98176
2022-09-09T17:40:34.000Z,98178
2022-09-09T17:42:01.000Z,98184
2022-09-09T17:45:34.000Z,98184
2022-09-09T17:47:40.000Z,98185
2022-09-09T17:49:06.000Z,98183
2022-09-09T17:51:12.000Z,98183
2022-09-09T17:52:39.000Z,98185
2022-09-09T17:54:45.000Z,98182
2022-09-09T17:56:11.000Z,98183
2022-09-09T17:58:18.000Z,98184
2022-09-09T17:59:44.000Z,98185
2022-09-09T18:01:50.000Z,98188
2022-09-09T18:03:17.000Z,98191
2022-09-09T18:05:23.000Z,98189
2022-09-09T18:08:15.000Z,98190
2022-09-09T18:09:41.000Z,98191
2022-09-09T18:11:47.000Z,98191
2022-09-09T18:13:14.000Z,98194
2022-09-09T18:15:20.000Z,98190
2022-09-09T18:17:05.000Z,98195
2022-09-09T18:19:11.000Z,98196
2022-09-09T18:20:38.000Z,98195
2022-09-09T18:22:44.000Z,98196
2022-09-09T18:24:10.000Z,98197
2022-09-09T18:26:17.000Z,98193
2022-09-09T18:27:43.000Z,98190
2022-09-09T18:29:49.000Z,98189
2022-09-09T18:31:16.000Z,98191
2022-09-09T18:33:22.000Z,98197
2022-09-09T18:34:49.000Z,98197
2022-09-09T18:37:00.000Z,98198
2022-09-09T18:38:27.000Z,98203
2022-09-09T18:40:33.000Z,98198
2022-09-09T18:42:00.000Z,98202
2022-09-09T18:44:06.000Z,98203
2022-09-09T18:46:57.000Z,98208
2022-09-09T18:48:24.000Z,98209
2022-09-09T18:50:30.000Z,98202
2022-09-09T18:51:56.000Z,98205
2022-09-09T18:54:02.000Z,98201
2022-09-09T18:55:29.000Z,98198
2022-09-09T18:57:35.000Z,98198
2022-09-09T18:59:02.000Z,98196
2022-09-09T19:01:09.000Z,98194
2022-09-09T19:02:36.000Z,98195
2022-09-09T19:04:42.000Z,98188
2022-09-09T19:06:08.000Z,98187
2022-09-09T19:08:14.000Z,98188
2022-09-09T19:09:41.000Z,98187
2022-09-09T19:11:47.000Z,98187
2022-09-09T19:13:14.000Z,98188
2022-09-09T19:15:20.000Z,98194
2022-09-09T19:16:46.000Z,98195
2022-09-09T19:18:52.000Z,98197
2022-09-09T19:20:19.000Z,98195
2022-09-09T19:22:25.000Z,98199
2022-09-09T19:25:16.000Z,98201
2022-09-09T19:26:43.000Z,98205
2022-09-09T19:28:49.000Z,98211
2022-09-09T19:30:15.000Z,98207
2022-09-09T19:32:21.000Z,98214
2022-09-09T19:34:19.000Z,98214
2022-09-09T19:36:25.000Z,98212
2022-09-09T19:37:52.000Z,98217
2022-09-09T19:39:58.000Z,98219
2022-09-09T19:41:25.000Z,98220
2022-09-09T19:43:31.000Z,98223
2022-09-09T19:44:57.000Z,98228
2022-09-09T19:47:03.000Z,98230
2022-09-09T19:48:30.000Z,98229
2022-09-09T19:50:36.000Z,98234
2022-09-09T19:52:03.000Z,98236
2022-09-09T19:54:09.000Z,98236
2022-09-09T19:55:35.000Z,98240
2022-09-09T19:57:41.000Z,98238
2022-09-09T19:59:08.000Z,98241
2022-09-09T20:01:14.000Z,98239
2022-09-09T20:04:05.000Z,98237
2022-09-09T20:05:32.000Z,98234
2022-09-09T20:07:38.000Z,98233
2022-09-09T20:09:04.000Z,98235
2022-09-09T20:11:11.000Z,98237
2022-09-09T20:12:37.000Z,98232
2022-09-09T20:14:43.000Z,98232
2022-09-09T20:16:10.000Z,98229
2022-09-09T20:18:16.000Z,98232
2022-09-09T20:19:43.000Z,98235
2022-09-09T20:21:49.000Z,98239
2022-09-09T20:23:15.000Z,98238
2022-09-09T20:25:21.000Z,98237
2022-09-09T20:26:48.000Z,98243
2022-09-09T20:28:54.000Z,98239
2022-09-09T20:30:20.000Z,98240
2022-09-09T20:32:27.000Z,98238
2022-09-09T20:33:53.000Z,98247
2022-09-09T20:35:59.000Z,98240
2022-09-09T20:37:26.000Z,98242
2022-09-09T20:39:32.000Z,98235
2022-09-09T20:42:23.000Z,98235
2022-09-09T20:43:49.000Z,98235
2022-09-09T20:45:56.000Z,98237
2022-09-09T20:47:22.000Z,98235
2022-09-09T20:49:28.000Z,98235
2022-09-09T20:50:55.000Z,98236
2022-09-09T20:53:01.000Z,98234
2022-09-09T20:54:27.000Z,98231
2022-09-09T20:56:33.000Z,98231
2022-09-09T20:58:00.000Z,98225
2022-09-09T21:00:06.000Z,98228
2022-09-09T21:01:32.000Z,98228
2022-09-09T21:03:38.000Z,98235
2022-09-09T21:05:05.000Z,98232
2022-09-09T21:07:11.000Z,98235
2022-09-09T21:08:38.000Z,98234
2022-09-09T21:10:44.000Z,98230
2022-09-09T21:12:11.000Z,98235
2022-09-09T21:14:17.000Z,98236
2022-09-09T21:15:43.000Z,98239
2022-09-09T21:17:49.000Z,98238
2022-09-09T21:20:41.000Z,98241
2022-09-09T21:22:07.000Z,98241
2022-09-09T21:24:13.000Z,98246
2022-09-09T21:27:46.000Z,98249
2022-09-09T21:29:12.000Z,98252
2022-09-09T21:31:18.000Z,98251
2022-09-09T21:32:45.000Z,98250
2022-09-09T21:34:51.000Z,98249
2022-09-09T21:36:18.000Z,98251
2022-09-09T21:38:24.000Z,98252
2022-09-09T21:39:50.000Z,98252
2022-09-09T21:41:56.000Z,98257
2022-09-09T21:43:23.000Z,98255
2022-09-09T21:45:29.000Z,98255
2022-09-09T21:46:56.000Z,98261
2022-09-09T21:49:02.000Z,98263
2022-09-09T21:50:28.000Z,98265
2022-09-09T21:52:34.000Z,98267
2022-09-09T21:54:01.000Z,98268
2022-09-09T21:56:07.000Z,98268
2022-09-09T21:58:58.000Z,98267
2022-09-09T22:00:25.000Z,98267
2022-09-09T22:02:31.000Z,98267
2022-09-09T22:03:57.000Z,98273
2022-09-09T22:06:04.000Z,98274
2022-09-09T22:07:30.000Z,98278
2022-09-09T22:09:36.000Z,98275
2022-09-09T22:11:03.000Z,98278
2022-09-09T22:13:09.000Z,98279
2022-09-09T22:14:35.000Z,98281
2022-09-09T22:16:41.000Z,98280
2022-09-09T22:18:08.000Z,98280
2022-09-09T22:20:14.000Z,98279
2022-09-09T22:21:41.000Z,98270
2022-09-09T22:23:47.000Z,98278
2022-09-09T22:25:13.000Z,98276
2022-09-09T22:27:19.000Z,98282
2022-09-09T22:28:46.000Z,98288
2022-09-09T22:30:52.000Z,98287
2022-09-09T22:32:18.000Z,98282
2022-09-09T22:34:25.000Z,98281
2022-09-09T22:37:16.000Z,98281
2022-09-09T22:38:42.000Z,98283
2022-09-09T22:40:49.000Z,98284
2022-09-09T22:42:15.000Z,98288
2022-09-09T22:44:21.000Z,98285
2022-09-09T22:45:48.000Z,98282
2022-09-09T22:47:54.000Z,98291
2022-09-09T22:49:20.000Z,98292
2022-09-09T22:51:27.000Z,98291
2022-09-09T22:52:53.000Z,98291
2022-09-09T22:54:59.000Z,98290
2022-09-09T22:56:26.000Z,98286
2022-09-09T22:58:32.000Z,98288
2022-09-09T22:59:58.000Z,98284
2022-09-09T23:02:05.000Z,98285
2022-09-09T23:03:31.000Z,98288
2022-09-09T23:05:37.000Z,98282
2022-09-09T23:07:04.000Z,98282
2022-09-09T23:09:10.000Z,98281
2022-09-09T23:10:36.000Z,98280
2022-09-09T23:12:42.000Z,98277
2022-09-09T23:15:33.000Z,98284
2022-09-09T23:17:00.000Z,98284
2022-09-09T23:19:06.000Z,98286
2022-09-09T23:20:33.000Z,98291
2022-09-09T23:22:39.000Z,98285
2022-09-09T23:24:05.000Z,98287
2022-09-09T23:26:11.000Z,98289
2022-09-09T23:27:38.000Z,98284
2022-09-09T23:29:44.000Z,98282
2022-09-09T23:31:10.000Z,98287
2022-09-09T23:33:16.000Z,98279
2022-09-09T23:34:43.000Z,98282
2022-09-09T23:36:49.000Z,98281
2022-09-09T23:38:16.000Z,98279